sensor_id;sensor_type;location;lat;lon;timestamp;temperature;humidity
59923;DHT22;45778;51.142;3.732;2023-07-08T00:00:29;22.00;72.20
59923;DHT22;45778;51.142;3.732;2023-07-08T00:02:55;22.00;72.00
59923;DHT22;45778;51.142;3.732;2023-07-08T00:05:22;21.90;72.40
59923;DHT22;45778;51.142;3.732;2023-07-08T00:07:49;21.80;72.40
59923;DHT22;45778;51.142;3.732;2023-07-08T00:10:19;21.70;72.30
59923;DHT22;45778;51.142;3.732;2023-07-08T00:12:47;21.70;72.60
59923;DHT22;45778;51.142;3.732;2023-07-08T00:15:13;21.70;73.30
59923;DHT22;45778;51.142;3.732;2023-07-08T00:17:39;21.60;73.20
59923;DHT22;45778;51.142;3.732;2023-07-08T00:20:19;21.60;73.30
59923;DHT22;45778;51.142;3.732;2023-07-08T00:22:44;21.50;73.50
59923;DHT22;45778;51.142;3.732;2023-07-08T00:25:13;21.50;73.70
59923;DHT22;45778;51.142;3.732;2023-07-08T00:27:42;21.50;74.10
59923;DHT22;45778;51.142;3.732;2023-07-08T00:32:40;21.30;74.20
59923;DHT22;45778;51.142;3.732;2023-07-08T00:35:07;21.30;74.60
59923;DHT22;45778;51.142;3.732;2023-07-08T00:37:32;21.20;74.80
59923;DHT22;45778;51.142;3.732;2023-07-08T00:39:58;21.20;75.00
59923;DHT22;45778;51.142;3.732;2023-07-08T00:42:24;21.10;75.50
59923;DHT22;45778;51.142;3.732;2023-07-08T00:44:51;21.00;75.80
59923;DHT22;45778;51.142;3.732;2023-07-08T00:47:17;21.00;76.00
59923;DHT22;45778;51.142;3.732;2023-07-08T00:49:55;21.00;76.30
59923;DHT22;45778;51.142;3.732;2023-07-08T00:52:23;20.90;76.60
59923;DHT22;45778;51.142;3.732;2023-07-08T00:54:55;20.90;76.70
59923;DHT22;45778;51.142;3.732;2023-07-08T00:57:23;20.90;76.90
59923;DHT22;45778;51.142;3.732;2023-07-08T00:59:59;20.80;77.00
59923;DHT22;45778;51.142;3.732;2023-07-08T01:02:26;20.70;77.50
59923;DHT22;45778;51.142;3.732;2023-07-08T01:04:58;20.60;78.00
59923;DHT22;45778;51.142;3.732;2023-07-08T01:07:26;20.60;78.40
59923;DHT22;45778;51.142;3.732;2023-07-08T01:10:26;20.60;78.70
59923;DHT22;45778;51.142;3.732;2023-07-08T01:12:52;20.50;79.30
59923;DHT22;45778;51.142;3.732;2023-07-08T01:15:22;20.50;80.00
59923;DHT22;45778;51.142;3.732;2023-07-08T01:17:49;20.30;80.40
59923;DHT22;45778;51.142;3.732;2023-07-08T01:20:19;20.20;80.80
59923;DHT22;45778;51.142;3.732;2023-07-08T01:22:46;20.20;81.20
59923;DHT22;45778;51.142;3.732;2023-07-08T01:25:12;20.20;81.40
59923;DHT22;45778;51.142;3.732;2023-07-08T01:27:42;20.20;81.80
59923;DHT22;45778;51.142;3.732;2023-07-08T01:30:10;20.10;82.30
59923;DHT22;45778;51.142;3.732;2023-07-08T01:32:40;20.00;82.50
59923;DHT22;45778;51.142;3.732;2023-07-08T01:35:09;20.00;82.50
59923;DHT22;45778;51.142;3.732;2023-07-08T01:37:39;19.90;82.50
59923;DHT22;45778;51.142;3.732;2023-07-08T01:40:23;19.90;82.60
59923;DHT22;45778;51.142;3.732;2023-07-08T01:42:49;19.80;83.10
59923;DHT22;45778;51.142;3.732;2023-07-08T01:45:17;19.80;83.40
59923;DHT22;45778;51.142;3.732;2023-07-08T01:47:47;19.70;83.50
59923;DHT22;45778;51.142;3.732;2023-07-08T01:50:14;19.70;83.90
59923;DHT22;45778;51.142;3.732;2023-07-08T01:52:40;19.60;84.30
59923;DHT22;45778;51.142;3.732;2023-07-08T01:55:06;19.60;84.50
59923;DHT22;45778;51.142;3.732;2023-07-08T01:57:32;19.60;84.70
59923;DHT22;45778;51.142;3.732;2023-07-08T01:59:57;19.50;85.30
59923;DHT22;45778;51.142;3.732;2023-07-08T02:02:23;19.60;85.60
59923;DHT22;45778;51.142;3.732;2023-07-08T02:04:49;19.50;85.60
59923;DHT22;45778;51.142;3.732;2023-07-08T02:07:15;19.50;86.10
59923;DHT22;45778;51.142;3.732;2023-07-08T02:09:41;19.40;86.70
59923;DHT22;45778;51.142;3.732;2023-07-08T02:12:07;19.40;86.70
59923;DHT22;45778;51.142;3.732;2023-07-08T02:14:33;19.40;87.00
59923;DHT22;45778;51.142;3.732;2023-07-08T02:16:58;19.40;87.10
59923;DHT22;45778;51.142;3.732;2023-07-08T02:19:24;19.40;87.70
59923;DHT22;45778;51.142;3.732;2023-07-08T02:21:50;19.40;88.00
59923;DHT22;45778;51.142;3.732;2023-07-08T02:24:19;19.40;88.20
59923;DHT22;45778;51.142;3.732;2023-07-08T02:26:44;19.40;88.50
59923;DHT22;45778;51.142;3.732;2023-07-08T02:29:12;19.30;89.20
59923;DHT22;45778;51.142;3.732;2023-07-08T02:31:38;19.30;89.70
59923;DHT22;45778;51.142;3.732;2023-07-08T02:34:04;19.20;90.00
59923;DHT22;45778;51.142;3.732;2023-07-08T02:36:30;19.20;90.20
59923;DHT22;45778;51.142;3.732;2023-07-08T02:38:55;19.20;90.40
59923;DHT22;45778;51.142;3.732;2023-07-08T02:41:21;19.10;90.60
59923;DHT22;45778;51.142;3.732;2023-07-08T02:43:47;19.10;90.80
59923;DHT22;45778;51.142;3.732;2023-07-08T02:46:12;19.10;91.10
59923;DHT22;45778;51.142;3.732;2023-07-08T02:48:38;19.10;91.20
59923;DHT22;45778;51.142;3.732;2023-07-08T02:51:05;19.10;91.60
59923;DHT22;45778;51.142;3.732;2023-07-08T02:53:31;19.10;91.80
59923;DHT22;45778;51.142;3.732;2023-07-08T02:55:57;19.00;92.10
59923;DHT22;45778;51.142;3.732;2023-07-08T02:58:23;19.00;92.20
59923;DHT22;45778;51.142;3.732;2023-07-08T03:00:55;19.10;92.30
59923;DHT22;45778;51.142;3.732;2023-07-08T03:03:21;19.10;92.50
59923;DHT22;45778;51.142;3.732;2023-07-08T03:05:58;19.10;92.70
59923;DHT22;45778;51.142;3.732;2023-07-08T03:08:25;19.00;93.00
59923;DHT22;45778;51.142;3.732;2023-07-08T03:10:56;18.90;93.30
59923;DHT22;45778;51.142;3.732;2023-07-08T03:13:22;19.00;93.70
59923;DHT22;45778;51.142;3.732;2023-07-08T03:15:48;18.90;93.80
59923;DHT22;45778;51.142;3.732;2023-07-08T03:18:13;18.90;94.10
59923;DHT22;45778;51.142;3.732;2023-07-08T03:20:40;18.80;94.50
59923;DHT22;45778;51.142;3.732;2023-07-08T03:23:06;18.80;94.60
59923;DHT22;45778;51.142;3.732;2023-07-08T03:25:31;18.80;95.00
59923;DHT22;45778;51.142;3.732;2023-07-08T03:27:57;18.80;95.40
59923;DHT22;45778;51.142;3.732;2023-07-08T03:30:23;18.80;95.60
59923;DHT22;45778;51.142;3.732;2023-07-08T03:32:49;18.70;95.90
59923;DHT22;45778;51.142;3.732;2023-07-08T03:35:14;18.70;96.20
59923;DHT22;45778;51.142;3.732;2023-07-08T03:37:41;18.70;96.30
59923;DHT22;45778;51.142;3.732;2023-07-08T03:40:08;18.60;96.40
59923;DHT22;45778;51.142;3.732;2023-07-08T03:42:35;18.60;96.70
59923;DHT22;45778;51.142;3.732;2023-07-08T03:45:01;18.60;97.20
59923;DHT22;45778;51.142;3.732;2023-07-08T03:47:26;18.60;97.30
59923;DHT22;45778;51.142;3.732;2023-07-08T03:49:52;18.60;97.40
59923;DHT22;45778;51.142;3.732;2023-07-08T03:52:18;18.60;97.50
59923;DHT22;45778;51.142;3.732;2023-07-08T03:54:44;18.60;97.60
59923;DHT22;45778;51.142;3.732;2023-07-08T03:57:09;18.60;97.80
59923;DHT22;45778;51.142;3.732;2023-07-08T03:59:35;18.50;97.80
59923;DHT22;45778;51.142;3.732;2023-07-08T04:02:01;18.50;98.20
59923;DHT22;45778;51.142;3.732;2023-07-08T04:04:26;18.60;98.30
59923;DHT22;45778;51.142;3.732;2023-07-08T04:06:52;18.60;98.40
59923;DHT22;45778;51.142;3.732;2023-07-08T04:09:18;18.60;98.60
59923;DHT22;45778;51.142;3.732;2023-07-08T04:11:44;18.60;98.60
59923;DHT22;45778;51.142;3.732;2023-07-08T04:14:10;18.70;98.70
59923;DHT22;45778;51.142;3.732;2023-07-08T04:16:45;18.60;98.90
59923;DHT22;45778;51.142;3.732;2023-07-08T04:19:14;18.70;98.90
59923;DHT22;45778;51.142;3.732;2023-07-08T04:21:41;18.70;98.80
59923;DHT22;45778;51.142;3.732;2023-07-08T04:24:09;18.70;98.70
59923;DHT22;45778;51.142;3.732;2023-07-08T04:26:35;18.80;98.60
59923;DHT22;45778;51.142;3.732;2023-07-08T04:29:02;18.90;98.50
59923;DHT22;45778;51.142;3.732;2023-07-08T04:31:27;19.00;98.40
59923;DHT22;45778;51.142;3.732;2023-07-08T04:33:53;19.00;98.40
59923;DHT22;45778;51.142;3.732;2023-07-08T04:36:19;19.00;98.30
59923;DHT22;45778;51.142;3.732;2023-07-08T04:38:47;19.00;98.40
59923;DHT22;45778;51.142;3.732;2023-07-08T04:41:13;19.10;98.60
59923;DHT22;45778;51.142;3.732;2023-07-08T04:43:39;19.20;98.70
59923;DHT22;45778;51.142;3.732;2023-07-08T04:46:18;19.30;98.90
59923;DHT22;45778;51.142;3.732;2023-07-08T04:48:44;19.40;99.00
59923;DHT22;45778;51.142;3.732;2023-07-08T04:51:11;19.40;99.00
59923;DHT22;45778;51.142;3.732;2023-07-08T04:53:36;19.50;99.00
59923;DHT22;45778;51.142;3.732;2023-07-08T04:56:02;19.60;98.90
59923;DHT22;45778;51.142;3.732;2023-07-08T04:58:28;19.70;98.90
59923;DHT22;45778;51.142;3.732;2023-07-08T05:00:54;19.70;98.90
59923;DHT22;45778;51.142;3.732;2023-07-08T05:03:19;19.80;98.70
59923;DHT22;45778;51.142;3.732;2023-07-08T05:05:45;19.90;98.60
59923;DHT22;45778;51.142;3.732;2023-07-08T05:08:12;20.00;98.50
59923;DHT22;45778;51.142;3.732;2023-07-08T05:10:38;20.10;98.50
59923;DHT22;45778;51.142;3.732;2023-07-08T05:13:05;20.20;98.20
59923;DHT22;45778;51.142;3.732;2023-07-08T05:15:30;20.30;98.10
59923;DHT22;45778;51.142;3.732;2023-07-08T05:17:56;20.40;98.00
59923;DHT22;45778;51.142;3.732;2023-07-08T05:20:22;20.50;97.60
59923;DHT22;45778;51.142;3.732;2023-07-08T05:22:48;20.60;97.30
59923;DHT22;45778;51.142;3.732;2023-07-08T05:25:14;20.70;97.20
59923;DHT22;45778;51.142;3.732;2023-07-08T05:27:40;20.80;97.10
59923;DHT22;45778;51.142;3.732;2023-07-08T05:30:09;20.80;96.50
59923;DHT22;45778;51.142;3.732;2023-07-08T05:32:36;20.80;96.70
59923;DHT22;45778;51.142;3.732;2023-07-08T05:35:02;20.90;96.00
59923;DHT22;45778;51.142;3.732;2023-07-08T05:37:28;21.00;95.80
59923;DHT22;45778;51.142;3.732;2023-07-08T05:39:55;20.90;95.20
59923;DHT22;45778;51.142;3.732;2023-07-08T05:42:22;21.00;94.70
59923;DHT22;45778;51.142;3.732;2023-07-08T05:44:48;21.20;94.60
59923;DHT22;45778;51.142;3.732;2023-07-08T05:47:14;21.40;94.20
59923;DHT22;45778;51.142;3.732;2023-07-08T05:49:40;21.60;94.10
59923;DHT22;45778;51.142;3.732;2023-07-08T05:52:06;21.70;93.90
59923;DHT22;45778;51.142;3.732;2023-07-08T05:54:39;21.80;93.30
59923;DHT22;45778;51.142;3.732;2023-07-08T05:57:07;21.90;93.00
59923;DHT22;45778;51.142;3.732;2023-07-08T05:59:34;22.00;93.00
59923;DHT22;45778;51.142;3.732;2023-07-08T06:02:00;22.10;93.40
59923;DHT22;45778;51.142;3.732;2023-07-08T06:04:27;22.20;93.40
59923;DHT22;45778;51.142;3.732;2023-07-08T06:06:53;22.30;93.50
59923;DHT22;45778;51.142;3.732;2023-07-08T06:09:18;22.40;93.50
59923;DHT22;45778;51.142;3.732;2023-07-08T06:11:44;22.50;93.50
59923;DHT22;45778;51.142;3.732;2023-07-08T06:14:10;22.60;93.50
59923;DHT22;45778;51.142;3.732;2023-07-08T06:16:36;22.70;93.50
59923;DHT22;45778;51.142;3.732;2023-07-08T06:19:01;22.90;93.20
59923;DHT22;45778;51.142;3.732;2023-07-08T06:21:27;22.90;93.20
59923;DHT22;45778;51.142;3.732;2023-07-08T06:23:53;23.00;93.10
59923;DHT22;45778;51.142;3.732;2023-07-08T06:26:18;23.10;92.90
59923;DHT22;45778;51.142;3.732;2023-07-08T06:28:44;23.10;92.60
59923;DHT22;45778;51.142;3.732;2023-07-08T06:31:10;23.20;92.50
59923;DHT22;45778;51.142;3.732;2023-07-08T06:33:35;23.30;92.30
59923;DHT22;45778;51.142;3.732;2023-07-08T06:36:01;23.40;92.20
59923;DHT22;45778;51.142;3.732;2023-07-08T06:38:27;23.40;92.00
59923;DHT22;45778;51.142;3.732;2023-07-08T06:40:53;23.40;91.90
59923;DHT22;45778;51.142;3.732;2023-07-08T06:43:18;23.50;92.00
59923;DHT22;45778;51.142;3.732;2023-07-08T06:45:44;23.50;91.90
59923;DHT22;45778;51.142;3.732;2023-07-08T06:48:10;23.50;92.00
59923;DHT22;45778;51.142;3.732;2023-07-08T06:50:37;23.60;91.80
59923;DHT22;45778;51.142;3.732;2023-07-08T06:53:02;23.70;92.00
59923;DHT22;45778;51.142;3.732;2023-07-08T06:55:28;23.80;91.90
59923;DHT22;45778;51.142;3.732;2023-07-08T06:57:55;24.00;92.10
59923;DHT22;45778;51.142;3.732;2023-07-08T07:00:21;24.00;92.00
59923;DHT22;45778;51.142;3.732;2023-07-08T07:02:47;24.10;92.20
59923;DHT22;45778;51.142;3.732;2023-07-08T07:05:12;24.20;92.20
59923;DHT22;45778;51.142;3.732;2023-07-08T07:07:38;24.20;92.20
59923;DHT22;45778;51.142;3.732;2023-07-08T07:10:04;24.20;92.30
59923;DHT22;45778;51.142;3.732;2023-07-08T07:12:31;24.30;92.10
59923;DHT22;45778;51.142;3.732;2023-07-08T07:14:56;24.40;92.30
59923;DHT22;45778;51.142;3.732;2023-07-08T07:17:23;24.40;92.50
59923;DHT22;45778;51.142;3.732;2023-07-08T07:19:50;24.60;92.40
59923;DHT22;45778;51.142;3.732;2023-07-08T07:22:16;24.70;92.40
59923;DHT22;45778;51.142;3.732;2023-07-08T07:24:42;24.70;93.10
59923;DHT22;45778;51.142;3.732;2023-07-08T07:27:08;24.60;92.50
59923;DHT22;45778;51.142;3.732;2023-07-08T07:29:41;24.60;91.20
59923;DHT22;45778;51.142;3.732;2023-07-08T07:32:08;24.60;90.70
59923;DHT22;45778;51.142;3.732;2023-07-08T07:34:34;24.60;90.90
59923;DHT22;45778;51.142;3.732;2023-07-08T07:36:59;24.20;92.00
59923;DHT22;45778;51.142;3.732;2023-07-08T07:39:25;24.00;92.00
59923;DHT22;45778;51.142;3.732;2023-07-08T07:41:51;24.00;92.00
59923;DHT22;45778;51.142;3.732;2023-07-08T07:44:16;24.10;92.10
59923;DHT22;45778;51.142;3.732;2023-07-08T07:46:42;24.50;92.20
59923;DHT22;45778;51.142;3.732;2023-07-08T07:49:07;24.90;91.70
59923;DHT22;45778;51.142;3.732;2023-07-08T07:51:33;25.00;91.20
59923;DHT22;45778;51.142;3.732;2023-07-08T07:53:59;25.00;90.60
59923;DHT22;45778;51.142;3.732;2023-07-08T07:56:24;25.20;90.80
59923;DHT22;45778;51.142;3.732;2023-07-08T07:58:50;25.30;90.50
59923;DHT22;45778;51.142;3.732;2023-07-08T08:01:16;25.50;90.20
59923;DHT22;45778;51.142;3.732;2023-07-08T08:03:41;25.60;89.50
59923;DHT22;45778;51.142;3.732;2023-07-08T08:06:07;25.90;89.20
59923;DHT22;45778;51.142;3.732;2023-07-08T08:08:33;26.10;87.80
59923;DHT22;45778;51.142;3.732;2023-07-08T08:10:58;26.20;86.00
59923;DHT22;45778;51.142;3.732;2023-07-08T08:13:24;26.30;86.40
59923;DHT22;45778;51.142;3.732;2023-07-08T08:15:56;26.40;86.20
59923;DHT22;45778;51.142;3.732;2023-07-08T08:18:21;26.50;85.70
59923;DHT22;45778;51.142;3.732;2023-07-08T08:20:50;26.70;86.70
59923;DHT22;45778;51.142;3.732;2023-07-08T08:23:16;27.00;87.30
59923;DHT22;45778;51.142;3.732;2023-07-08T08:25:41;27.30;86.30
59923;DHT22;45778;51.142;3.732;2023-07-08T08:28:07;27.50;85.60
59923;DHT22;45778;51.142;3.732;2023-07-08T08:30:33;27.40;85.80
59923;DHT22;45778;51.142;3.732;2023-07-08T08:32:59;27.50;84.80
59923;DHT22;45778;51.142;3.732;2023-07-08T08:35:26;27.50;82.60
59923;DHT22;45778;51.142;3.732;2023-07-08T08:37:52;27.40;83.40
59923;DHT22;45778;51.142;3.732;2023-07-08T08:40:20;27.50;82.60
59923;DHT22;45778;51.142;3.732;2023-07-08T08:43:16;27.50;81.80
59923;DHT22;45778;51.142;3.732;2023-07-08T08:48:25;27.40;81.30
59923;DHT22;45778;51.142;3.732;2023-07-08T08:51:06;27.50;81.00
59923;DHT22;45778;51.142;3.732;2023-07-08T08:53:33;27.50;80.50
59923;DHT22;45778;51.142;3.732;2023-07-08T08:56:15;27.60;81.80
59923;DHT22;45778;51.142;3.732;2023-07-08T08:58:52;27.60;81.10
59923;DHT22;45778;51.142;3.732;2023-07-08T09:01:22;27.70;82.30
59923;DHT22;45778;51.142;3.732;2023-07-08T09:06:25;27.90;83.10
59923;DHT22;45778;51.142;3.732;2023-07-08T09:08:52;28.10;81.50
59923;DHT22;45778;51.142;3.732;2023-07-08T09:11:39;28.30;81.40
59923;DHT22;45778;51.142;3.732;2023-07-08T09:14:15;28.60;80.60
59923;DHT22;45778;51.142;3.732;2023-07-08T09:19:41;29.00;77.70
59923;DHT22;45778;51.142;3.732;2023-07-08T09:22:15;29.40;79.10
59923;DHT22;45778;51.142;3.732;2023-07-08T09:24:46;29.50;75.90
59923;DHT22;45778;51.142;3.732;2023-07-08T09:27:13;29.50;75.50
59923;DHT22;45778;51.142;3.732;2023-07-08T09:29:39;29.60;76.10
59923;DHT22;45778;51.142;3.732;2023-07-08T09:32:26;29.90;75.00
59923;DHT22;45778;51.142;3.732;2023-07-08T09:35:01;30.20;76.60
59923;DHT22;45778;51.142;3.732;2023-07-08T09:37:30;30.40;76.60
59923;DHT22;45778;51.142;3.732;2023-07-08T09:39:57;30.60;75.80
59923;DHT22;45778;51.142;3.732;2023-07-08T09:42:29;30.80;74.30
59923;DHT22;45778;51.142;3.732;2023-07-08T09:45:01;30.80;75.30
59923;DHT22;45778;51.142;3.732;2023-07-08T09:47:32;30.70;72.40
59923;DHT22;45778;51.142;3.732;2023-07-08T09:49:59;31.00;73.30
59923;DHT22;45778;51.142;3.732;2023-07-08T09:52:28;31.30;73.30
59923;DHT22;45778;51.142;3.732;2023-07-08T09:54:55;31.50;72.00
59923;DHT22;45778;51.142;3.732;2023-07-08T09:57:29;31.50;71.80
59923;DHT22;45778;51.142;3.732;2023-07-08T09:59:58;31.60;72.20
59923;DHT22;45778;51.142;3.732;2023-07-08T10:02:31;31.80;70.90
59923;DHT22;45778;51.142;3.732;2023-07-08T10:05:01;31.80;70.80
59923;DHT22;45778;51.142;3.732;2023-07-08T10:07:30;32.00;70.60
59923;DHT22;45778;51.142;3.732;2023-07-08T10:09:59;31.90;69.20
59923;DHT22;45778;51.142;3.732;2023-07-08T10:12:25;31.80;68.30
59923;DHT22;45778;51.142;3.732;2023-07-08T10:15:18;31.80;69.50
59923;DHT22;45778;51.142;3.732;2023-07-08T10:17:45;32.10;68.70
59923;DHT22;45778;51.142;3.732;2023-07-08T10:20:12;31.80;68.00
59923;DHT22;45778;51.142;3.732;2023-07-08T10:22:53;31.90;68.60
59923;DHT22;45778;51.142;3.732;2023-07-08T10:25:30;32.20;69.00
59923;DHT22;45778;51.142;3.732;2023-07-08T10:31:23;32.90;68.90
59923;DHT22;45778;51.142;3.732;2023-07-08T10:34:03;32.90;69.00
59923;DHT22;45778;51.142;3.732;2023-07-08T10:37:15;32.70;70.10
59923;DHT22;45778;51.142;3.732;2023-07-08T10:43:13;33.20;67.10
59923;DHT22;45778;51.142;3.732;2023-07-08T10:46:16;33.40;65.30
59923;DHT22;45778;51.142;3.732;2023-07-08T11:00:02;33.70;62.60
59923;DHT22;45778;51.142;3.732;2023-07-08T11:05:55;34.10;60.90
59923;DHT22;45778;51.142;3.732;2023-07-08T11:08:45;34.10;61.80
59923;DHT22;45778;51.142;3.732;2023-07-08T11:11:39;34.40;61.50
59923;DHT22;45778;51.142;3.732;2023-07-08T11:14:41;34.60;60.90
59923;DHT22;45778;51.142;3.732;2023-07-08T11:17:35;34.70;59.30
59923;DHT22;45778;51.142;3.732;2023-07-08T11:20:13;34.80;62.40
59923;DHT22;45778;51.142;3.732;2023-07-08T11:22:49;34.70;62.10
59923;DHT22;45778;51.142;3.732;2023-07-08T11:25:21;34.80;62.30
59923;DHT22;45778;51.142;3.732;2023-07-08T11:27:52;34.80;61.20
59923;DHT22;45778;51.142;3.732;2023-07-08T11:30:24;35.10;60.50
59923;DHT22;45778;51.142;3.732;2023-07-08T11:33:02;34.80;61.10
59923;DHT22;45778;51.142;3.732;2023-07-08T11:35:46;34.90;61.30
59923;DHT22;45778;51.142;3.732;2023-07-08T11:38:15;34.60;60.30
59923;DHT22;45778;51.142;3.732;2023-07-08T11:41:02;34.80;62.10
59923;DHT22;45778;51.142;3.732;2023-07-08T11:43:37;35.20;59.30
59923;DHT22;45778;51.142;3.732;2023-07-08T11:46:06;35.20;58.70
59923;DHT22;45778;51.142;3.732;2023-07-08T11:48:45;35.70;60.20
59923;DHT22;45778;51.142;3.732;2023-07-08T11:51:17;35.80;60.80
59923;DHT22;45778;51.142;3.732;2023-07-08T11:56:57;36.50;60.20
59923;DHT22;45778;51.142;3.732;2023-07-08T11:59:30;36.70;59.70
59923;DHT22;45778;51.142;3.732;2023-07-08T12:02:03;37.00;60.00
59923;DHT22;45778;51.142;3.732;2023-07-08T12:04:30;37.40;59.60
59923;DHT22;45778;51.142;3.732;2023-07-08T12:07:17;37.50;58.00
59923;DHT22;45778;51.142;3.732;2023-07-08T12:10:10;37.60;58.20
59923;DHT22;45778;51.142;3.732;2023-07-08T12:12:40;38.20;58.00
59923;DHT22;45778;51.142;3.732;2023-07-08T12:17:44;38.60;58.50
59923;DHT22;45778;51.142;3.732;2023-07-08T12:20:38;39.40;57.30
59923;DHT22;45778;51.142;3.732;2023-07-08T12:23:12;39.80;56.00
59923;DHT22;45778;51.142;3.732;2023-07-08T12:25:39;40.80;56.80
59923;DHT22;45778;51.142;3.732;2023-07-08T12:28:04;41.30;55.20
59923;DHT22;45778;51.142;3.732;2023-07-08T12:30:31;41.10;56.10
59923;DHT22;45778;51.142;3.732;2023-07-08T12:32:59;40.60;55.60
59923;DHT22;45778;51.142;3.732;2023-07-08T12:35:28;39.90;54.90
59923;DHT22;45778;51.142;3.732;2023-07-08T12:37:58;38.20;56.40
59923;DHT22;45778;51.142;3.732;2023-07-08T12:40:26;37.70;56.50
59923;DHT22;45778;51.142;3.732;2023-07-08T12:42:53;37.10;56.90
59923;DHT22;45778;51.142;3.732;2023-07-08T12:45:22;36.90;57.70
59923;DHT22;45778;51.142;3.732;2023-07-08T12:47:49;36.80;57.60
59923;DHT22;45778;51.142;3.732;2023-07-08T12:50:15;37.30;57.60
59923;DHT22;45778;51.142;3.732;2023-07-08T12:52:43;36.90;59.40
59923;DHT22;45778;51.142;3.732;2023-07-08T12:55:11;37.60;58.80
59923;DHT22;45778;51.142;3.732;2023-07-08T12:57:40;37.00;58.00
59923;DHT22;45778;51.142;3.732;2023-07-08T13:00:14;37.00;58.60
59923;DHT22;45778;51.142;3.732;2023-07-08T13:02:43;36.30;58.50
59923;DHT22;45778;51.142;3.732;2023-07-08T13:05:09;36.00;59.10
59923;DHT22;45778;51.142;3.732;2023-07-08T13:07:40;36.20;59.10
59923;DHT22;45778;51.142;3.732;2023-07-08T13:10:13;36.30;58.20
59923;DHT22;45778;51.142;3.732;2023-07-08T13:12:41;35.90;59.30
59923;DHT22;45778;51.142;3.732;2023-07-08T13:15:17;36.20;58.70
59923;DHT22;45778;51.142;3.732;2023-07-08T13:17:46;36.80;58.20
59923;DHT22;45778;51.142;3.732;2023-07-08T13:20:15;36.90;60.20
59923;DHT22;45778;51.142;3.732;2023-07-08T13:22:42;36.50;58.50
59923;DHT22;45778;51.142;3.732;2023-07-08T13:25:19;36.20;58.30
59923;DHT22;45778;51.142;3.732;2023-07-08T13:33:18;38.80;56.40
59923;DHT22;45778;51.142;3.732;2023-07-08T13:35:45;39.50;56.60
59923;DHT22;45778;51.142;3.732;2023-07-08T13:38:20;40.00;55.30
59923;DHT22;45778;51.142;3.732;2023-07-08T13:40:49;40.50;54.10
59923;DHT22;45778;51.142;3.732;2023-07-08T13:43:15;40.70;54.30
59923;DHT22;45778;51.142;3.732;2023-07-08T13:45:46;40.10;54.80
59923;DHT22;45778;51.142;3.732;2023-07-08T13:48:41;38.90;56.60
59923;DHT22;45778;51.142;3.732;2023-07-08T13:51:17;37.80;56.10
59923;DHT22;45778;51.142;3.732;2023-07-08T13:53:47;38.40;56.10
59923;DHT22;45778;51.142;3.732;2023-07-08T13:56:31;38.80;55.30
59923;DHT22;45778;51.142;3.732;2023-07-08T13:59:05;39.10;54.20
59923;DHT22;45778;51.142;3.732;2023-07-08T14:01:33;38.90;56.00
59923;DHT22;45778;51.142;3.732;2023-07-08T14:04:00;38.70;56.10
59923;DHT22;45778;51.142;3.732;2023-07-08T14:06:35;39.10;57.90
59923;DHT22;45778;51.142;3.732;2023-07-08T14:09:16;39.50;56.80
59923;DHT22;45778;51.142;3.732;2023-07-08T14:11:43;39.10;56.70
59923;DHT22;45778;51.142;3.732;2023-07-08T14:14:10;38.70;58.00
59923;DHT22;45778;51.142;3.732;2023-07-08T14:16:39;37.90;58.40
59923;DHT22;45778;51.142;3.732;2023-07-08T14:19:07;37.80;59.30
59923;DHT22;45778;51.142;3.732;2023-07-08T14:21:36;38.20;58.70
59923;DHT22;45778;51.142;3.732;2023-07-08T14:24:07;39.30;59.00
59923;DHT22;45778;51.142;3.732;2023-07-08T14:26:33;40.10;56.60
59923;DHT22;45778;51.142;3.732;2023-07-08T14:28:59;40.70;55.90
59923;DHT22;45778;51.142;3.732;2023-07-08T14:31:25;40.40;55.40
59923;DHT22;45778;51.142;3.732;2023-07-08T14:34:00;40.60;55.80
59923;DHT22;45778;51.142;3.732;2023-07-08T14:36:27;41.10;55.10
59923;DHT22;45778;51.142;3.732;2023-07-08T14:38:52;41.50;55.00
59923;DHT22;45778;51.142;3.732;2023-07-08T14:41:18;41.20;54.70
59923;DHT22;45778;51.142;3.732;2023-07-08T14:43:44;39.20;57.00
59923;DHT22;45778;51.142;3.732;2023-07-08T14:46:10;37.10;59.60
59923;DHT22;45778;51.142;3.732;2023-07-08T14:48:36;36.30;60.00
59923;DHT22;45778;51.142;3.732;2023-07-08T14:51:02;35.50;61.30
59923;DHT22;45778;51.142;3.732;2023-07-08T14:53:27;35.90;61.20
59923;DHT22;45778;51.142;3.732;2023-07-08T14:55:57;36.40;60.90
59923;DHT22;45778;51.142;3.732;2023-07-08T14:58:29;37.00;60.20
59923;DHT22;45778;51.142;3.732;2023-07-08T15:00:56;37.90;60.30
59923;DHT22;45778;51.142;3.732;2023-07-08T15:03:26;38.60;58.60
59923;DHT22;45778;51.142;3.732;2023-07-08T15:05:52;39.80;58.00
59923;DHT22;45778;51.142;3.732;2023-07-08T15:08:18;41.50;55.10
59923;DHT22;45778;51.142;3.732;2023-07-08T15:10:48;42.60;56.10
59923;DHT22;45778;51.142;3.732;2023-07-08T15:13:15;42.90;56.10
59923;DHT22;45778;51.142;3.732;2023-07-08T15:15:42;43.50;55.50
59923;DHT22;45778;51.142;3.732;2023-07-08T15:18:13;44.70;54.00
59923;DHT22;45778;51.142;3.732;2023-07-08T15:20:40;45.40;53.80
59923;DHT22;45778;51.142;3.732;2023-07-08T15:23:06;46.10;52.70
59923;DHT22;45778;51.142;3.732;2023-07-08T15:25:31;45.80;53.50
59923;DHT22;45778;51.142;3.732;2023-07-08T15:28:01;46.10;52.90
59923;DHT22;45778;51.142;3.732;2023-07-08T15:30:28;47.40;52.00
59923;DHT22;45778;51.142;3.732;2023-07-08T15:32:55;46.90;52.30
59923;DHT22;45778;51.142;3.732;2023-07-08T15:35:23;46.40;52.50
59923;DHT22;45778;51.142;3.732;2023-07-08T15:37:56;44.80;52.60
59923;DHT22;45778;51.142;3.732;2023-07-08T15:40:23;42.20;55.20
59923;DHT22;45778;51.142;3.732;2023-07-08T15:42:52;41.80;56.10
59923;DHT22;45778;51.142;3.732;2023-07-08T15:45:29;41.50;55.60
59923;DHT22;45778;51.142;3.732;2023-07-08T15:47:56;41.40;56.60
59923;DHT22;45778;51.142;3.732;2023-07-08T15:50:24;42.70;56.10
59923;DHT22;45778;51.142;3.732;2023-07-08T15:52:53;43.90;54.10
59923;DHT22;45778;51.142;3.732;2023-07-08T15:55:29;44.50;54.30
59923;DHT22;45778;51.142;3.732;2023-07-08T15:57:58;44.40;53.50
59923;DHT22;45778;51.142;3.732;2023-07-08T16:00:27;44.00;53.50
59923;DHT22;45778;51.142;3.732;2023-07-08T16:02:56;44.10;52.70
59923;DHT22;45778;51.142;3.732;2023-07-08T16:05:23;44.50;53.20
59923;DHT22;45778;51.142;3.732;2023-07-08T16:07:51;44.40;53.20
59923;DHT22;45778;51.142;3.732;2023-07-08T16:10:17;44.60;52.40
59923;DHT22;45778;51.142;3.732;2023-07-08T16:12:44;43.00;53.60
59923;DHT22;45778;51.142;3.732;2023-07-08T16:15:16;43.60;53.60
59923;DHT22;45778;51.142;3.732;2023-07-08T16:17:43;44.40;52.90
59923;DHT22;45778;51.142;3.732;2023-07-08T16:20:20;44.80;52.30
59923;DHT22;45778;51.142;3.732;2023-07-08T16:22:46;45.70;51.50
59923;DHT22;45778;51.142;3.732;2023-07-08T16:25:16;44.90;52.10